Terminal Aerodrome Forecast
Issued by NWS

Home | Current Version | Previous Version | Text Only | Print | Product List | Glossary On
Versions: 1 2 3 4 5 6 7 8 9 10 11 12 13 14 15 16 17
000
FTUS43 KFGF 220423 AAB
TAFDVL
TAF AMD
KDVL 220423Z 2204/2224 23005KT 2SM BR BKN015
     FM220700 27004KT 1/2SM FG OVC003
     FM220800 27004KT 3/4SM BR OVC003
     FM221500 28005KT P6SM OVC003
     FM221900 28009KT P6SM OVC008=

USA.gov is the U.S. government's official web portal to all federal, state and local government web resources and services.